Time;durP1;ratioP1;P1;durP2;ratioP2;P2;SDS_P1;SDS_P2;PMS_P1;PMS_P2;Temp;Humidity;BMP_temperature;BMP_pressure;BME280_temperature;BME280_humidity;BME280_pressure;Samples;Min_cycle;Max_cycle;Signal;HPM_P1;HPM_P2
2023/05/08 00:00:24;;;;;;;16.38;14.77;;;12.90;99.90;;;;;;5163413;27;20045;-35
2023/05/08 00:02:49;;;;;;;17.17;15.35;;;12.90;99.90;;;;;;5142598;27;20038;-36
2023/05/08 00:05:15;;;;;;;16.95;15.15;;;12.90;99.90;;;;;;5145341;27;20118;-35
2023/05/08 00:07:41;;;;;;;16.85;15.15;;;13.00;99.90;;;;;;5134581;27;20066;-35
2023/05/08 00:10:08;;;;;;;18.20;16.27;;;12.90;99.90;;;;;;5147156;27;20492;-36
2023/05/08 00:12:34;;;;;;;17.17;15.40;;;13.10;99.90;;;;;;5143992;27;20038;-35
2023/05/08 00:15:00;;;;;;;17.88;15.85;;;12.90;99.90;;;;;;5160839;27;20035;-36
2023/05/08 00:17:26;;;;;;;17.05;15.35;;;13.10;99.90;;;;;;5142413;27;20042;-41
2023/05/08 00:19:52;;;;;;;16.10;14.38;;;13.10;99.90;;;;;;5142189;27;20034;-35
2023/05/08 00:22:18;;;;;;;19.95;16.67;;;12.90;99.90;;;;;;5148225;27;20041;-37
2023/05/08 00:24:44;;;;;;;17.50;15.80;;;13.00;99.90;;;;;;5139989;27;20038;-37
2023/05/08 00:27:10;;;;;;;17.38;15.68;;;13.00;99.90;;;;;;5149129;27;20035;-35
2023/05/08 00:29:35;;;;;;;18.10;15.68;;;13.10;99.90;;;;;;5137475;27;20171;-36
2023/05/08 00:32:01;;;;;;;17.33;15.20;;;13.00;99.90;;;;;;5169763;27;20045;-37
2023/05/08 00:34:27;;;;;;;18.50;16.70;;;12.90;99.90;;;;;;5152833;27;20034;-36
2023/05/08 00:36:55;;;;;;;19.35;17.10;;;12.90;99.90;;;;;;5162627;27;20051;-35
2023/05/08 00:39:20;;;;;;;20.15;15.98;;;12.80;99.90;;;;;;5145492;27;20086;-35
2023/05/08 00:41:46;;;;;;;17.33;15.52;;;12.90;99.90;;;;;;5144020;27;20034;-35
2023/05/08 00:44:12;;;;;;;16.95;15.25;;;13.00;99.90;;;;;;5149357;27;20045;-36
2023/05/08 00:46:38;;;;;;;18.23;16.33;;;12.70;99.90;;;;;;5142638;27;20095;-38
2023/05/08 00:49:05;;;;;;;17.50;15.57;;;12.80;99.90;;;;;;5146869;27;20384;-37
2023/05/08 00:51:31;;;;;;;18.08;16.05;;;12.70;99.90;;;;;;5147779;27;20113;-35
2023/05/08 00:53:58;;;;;;;17.40;15.43;;;12.70;99.90;;;;;;5157246;27;20041;-36
2023/05/08 00:56:26;;;;;;;17.85;15.95;;;12.80;99.90;;;;;;5156394;27;20094;-37
2023/05/08 00:58:52;;;;;;;17.02;15.35;;;12.60;99.90;;;;;;5142934;27;20077;-37
2023/05/08 01:01:18;;;;;;;17.40;15.60;;;12.60;99.90;;;;;;5168437;27;20575;-36
2023/05/08 01:03:44;;;;;;;17.50;15.70;;;12.60;99.90;;;;;;5146051;27;20070;-37
2023/05/08 01:06:10;;;;;;;18.15;16.23;;;12.70;99.90;;;;;;5167899;27;20040;-35
2023/05/08 01:08:36;;;;;;;17.70;15.40;;;12.90;99.90;;;;;;5143308;27;20272;-38
2023/05/08 01:11:21;;;;;;;17.45;15.68;;;12.60;99.90;;;;;;5142216;27;20030;-35
2023/05/08 01:14:02;;;;;;;17.63;15.88;;;12.70;99.90;;;;;;5146179;27;20042;-35
2023/05/08 01:16:31;;;;;;;18.35;16.38;;;12.40;99.90;;;;;;5150021;27;20125;-35
2023/05/08 01:19:33;;;;;;;17.90;16.00;;;12.50;99.90;;;;;;5158893;27;20038;-34
2023/05/08 01:22:17;;;;;;;16.90;15.10;;;12.30;99.90;;;;;;5145716;27;20499;-39
2023/05/08 01:25:17;;;;;;;17.77;16.00;;;12.40;99.90;;;;;;5120951;27;20099;-36
2023/05/08 01:28:16;;;;;;;18.15;16.27;;;12.30;99.90;;;;;;5160757;27;20042;-34
2023/05/08 01:31:02;;;;;;;17.20;15.43;;;12.30;99.90;;;;;;5155617;27;20132;-35
2023/05/08 01:33:57;;;;;;;18.02;16.15;;;12.30;99.90;;;;;;5149053;27;20030;-37
2023/05/08 01:36:46;;;;;;;17.25;15.38;;;12.00;99.90;;;;;;5128223;27;20531;-39
2023/05/08 01:39:25;;;;;;;17.55;15.75;;;11.90;99.90;;;;;;5151103;27;20043;-35
2023/05/08 01:42:05;;;;;;;16.00;14.38;;;11.90;99.90;;;;;;5147910;27;20030;-35
2023/05/08 01:44:40;;;;;;;16.60;14.75;;;11.90;99.90;;;;;;5138599;27;20037;-34
2023/05/08 01:47:08;;;;;;;17.20;15.25;;;11.80;99.90;;;;;;5155794;27;20049;-36
2023/05/08 01:49:40;;;;;;;17.33;15.48;;;11.80;99.90;;;;;;5143309;27;20134;-37
2023/05/08 01:52:14;;;;;;;18.08;16.10;;;11.80;99.90;;;;;;5129261;27;20042;-37
2023/05/08 01:54:49;;;;;;;17.30;15.50;;;11.80;99.90;;;;;;5153002;27;20034;-35
2023/05/08 01:57:17;;;;;;;17.80;15.65;;;11.60;99.90;;;;;;5157876;27;20487;-40
2023/05/08 01:59:44;;;;;;;17.40;15.52;;;11.50;99.90;;;;;;5151057;27;20399;-39
2023/05/08 02:02:12;;;;;;;17.48;15.68;;;11.60;99.90;;;;;;5136672;27;20049;-37
2023/05/08 02:04:40;;;;;;;18.02;15.68;;;11.50;99.90;;;;;;5151494;27;20189;-37
2023/05/08 02:07:06;;;;;;;19.50;15.48;;;11.50;99.90;;;;;;5144503;27;20478;-36
2023/05/08 02:09:32;;;;;;;18.35;15.55;;;11.50;99.90;;;;;;5157578;27;20038;-36
2023/05/08 02:12:00;;;;;;;19.42;15.43;;;11.30;99.90;;;;;;5137398;27;20031;-37
2023/05/08 02:14:26;;;;;;;17.15;15.35;;;11.30;99.90;;;;;;5136397;27;20034;-38
2023/05/08 02:16:55;;;;;;;17.70;14.95;;;11.40;99.90;;;;;;5136539;27;20049;-35
2023/05/08 02:19:23;;;;;;;18.25;15.32;;;11.20;99.90;;;;;;5140644;27;20105;-36
2023/05/08 02:21:50;;;;;;;16.42;14.73;;;11.20;99.90;;;;;;5136435;27;20042;-36
2023/05/08 02:24:16;;;;;;;17.25;15.45;;;11.30;99.90;;;;;;5136562;27;20544;-36
2023/05/08 02:26:44;;;;;;;17.95;15.45;;;11.20;99.90;;;;;;5136323;27;20114;-34
2023/05/08 02:29:10;;;;;;;17.65;15.75;;;11.00;99.90;;;;;;5157099;27;20041;-36
2023/05/08 02:31:37;;;;;;;18.27;16.35;;;11.00;99.90;;;;;;5156900;27;20399;-39
2023/05/08 02:34:05;;;;;;;17.10;15.23;;;11.00;99.90;;;;;;5137412;27;20035;-38
2023/05/08 02:36:31;;;;;;;17.75;14.65;;;10.90;99.90;;;;;;5136172;27;20117;-37
2023/05/08 02:39:01;;;;;;;17.60;15.70;;;10.90;99.90;;;;;;5136305;27;20038;-37
2023/05/08 02:41:30;;;;;;;16.13;14.45;;;10.80;99.90;;;;;;5135818;27;20106;-36
2023/05/08 02:43:56;;;;;;;18.75;15.35;;;10.90;99.90;;;;;;5153033;27;20038;-37
2023/05/08 02:46:47;;;;;;;16.65;14.90;;;10.80;99.90;;;;;;5147801;27;20039;-38
2023/05/08 02:49:45;;;;;;;17.88;15.10;;;10.80;99.90;;;;;;5118933;27;20133;-38
2023/05/08 02:52:31;;;;;;;19.77;16.55;;;10.80;99.90;;;;;;5128019;27;20043;-36
2023/05/08 02:55:18;;;;;;;17.70;15.75;;;10.80;99.90;;;;;;5175092;27;20038;-36
2023/05/08 02:58:16;;;;;;;17.60;14.98;;;10.70;99.90;;;;;;5156372;27;20050;-36
2023/05/08 03:01:28;;;;;;;16.85;14.50;;;10.60;99.90;;;;;;5137187;27;20047;-36
2023/05/08 03:04:03;;;;;;;18.35;16.02;;;10.60;99.90;;;;;;5140371;27;20091;-36
2023/05/08 03:06:35;;;;;;;18.38;15.00;;;10.50;99.90;;;;;;5139566;27;20432;-35
2023/05/08 03:09:05;;;;;;;17.00;15.20;;;10.40;99.90;;;;;;5135707;27;20034;-36
2023/05/08 03:11:38;;;;;;;17.65;15.52;;;10.50;99.90;;;;;;5145802;27;20033;-36
2023/05/08 03:14:08;;;;;;;17.17;15.35;;;10.50;99.90;;;;;;5153621;27;20415;-36
2023/05/08 03:16:36;;;;;;;17.58;15.77;;;10.50;99.90;;;;;;5149672;27;20483;-36
2023/05/08 03:19:06;;;;;;;17.33;15.52;;;10.50;99.90;;;;;;5156041;27;20073;-37
2023/05/08 03:21:33;;;;;;;17.55;15.68;;;10.30;99.90;;;;;;5156170;27;20057;-34
2023/05/08 03:24:01;;;;;;;17.77;14.93;;;10.40;99.90;;;;;;5138654;27;20480;-36
2023/05/08 03:26:27;;;;;;;19.75;16.08;;;10.40;99.90;;;;;;5135370;27;20126;-34
2023/05/08 03:28:56;;;;;;;19.55;14.85;;;10.30;99.90;;;;;;5137752;27;20388;-36
2023/05/08 03:31:23;;;;;;;17.98;15.52;;;10.30;99.90;;;;;;5135439;27;20091;-38
2023/05/08 03:33:52;;;;;;;16.33;14.60;;;10.30;99.90;;;;;;5135481;27;20056;-36
2023/05/08 03:36:19;;;;;;;18.15;16.23;;;10.40;99.90;;;;;;5141915;27;20390;-35
2023/05/08 03:38:45;;;;;;;17.05;15.23;;;10.30;99.90;;;;;;5155924;27;20071;-37
2023/05/08 03:41:12;;;;;;;18.70;15.48;;;10.40;99.90;;;;;;5155604;27;20077;-35
2023/05/08 03:43:38;;;;;;;17.75;15.52;;;10.40;99.90;;;;;;5155858;27;20042;-35
2023/05/08 03:46:07;;;;;;;18.30;15.27;;;10.40;99.90;;;;;;5138243;27;20031;-35
2023/05/08 03:48:34;;;;;;;16.27;14.32;;;10.40;99.90;;;;;;5134766;27;20031;-39
2023/05/08 03:51:04;;;;;;;17.13;14.88;;;10.50;99.90;;;;;;5147152;27;20030;-35
2023/05/08 03:53:31;;;;;;;17.35;14.77;;;10.50;99.90;;;;;;5157361;27;20376;-38
2023/05/08 03:55:58;;;;;;;17.63;14.70;;;10.40;99.90;;;;;;5152980;27;20045;-36
2023/05/08 03:58:25;;;;;;;17.63;14.80;;;10.50;99.90;;;;;;5146518;27;20050;-36
2023/05/08 04:01:04;;;;;;;17.67;15.50;;;10.40;99.90;;;;;;5134801;27;20039;-35
2023/05/08 04:03:54;;;;;;;19.08;15.15;;;10.50;99.90;;;;;;5155390;27;20383;-38
2023/05/08 04:06:33;;;;;;;16.50;14.75;;;10.50;99.90;;;;;;5140143;27;20143;-36
2023/05/08 04:09:02;;;;;;;16.08;14.32;;;10.40;99.90;;;;;;5144060;27;20158;-35
2023/05/08 04:11:43;;;;;;;19.88;15.80;;;10.30;99.90;;;;;;5154457;27;20383;-36
2023/05/08 04:14:15;;;;;;;17.50;15.70;;;10.40;99.90;;;;;;5144550;27;20047;-35
2023/05/08 04:16:50;;;;;;;16.75;14.98;;;10.40;99.90;;;;;;5158437;27;20065;-37
2023/05/08 04:19:24;;;;;;;16.42;14.38;;;10.40;99.90;;;;;;5138731;27;20038;-36
2023/05/08 04:21:50;;;;;;;17.98;14.85;;;10.50;99.90;;;;;;5141515;27;20573;-33
2023/05/08 04:24:17;;;;;;;17.17;15.38;;;10.40;99.90;;;;;;5151441;27;20034;-37
2023/05/08 04:26:44;;;;;;;16.65;14.70;;;10.30;99.90;;;;;;5152737;27;20376;-35
2023/05/08 04:29:10;;;;;;;16.70;14.90;;;10.30;99.90;;;;;;5138860;27;20046;-38
2023/05/08 04:31:37;;;;;;;17.00;15.18;;;10.40;99.90;;;;;;5155064;27;20041;-34
2023/05/08 04:34:03;;;;;;;16.63;14.80;;;10.20;99.90;;;;;;5159412;27;20430;-35
2023/05/08 04:36:32;;;;;;;18.13;15.68;;;10.40;99.90;;;;;;5144496;27;20035;-37
2023/05/08 04:38:58;;;;;;;16.85;14.85;;;10.40;99.90;;;;;;5141201;27;20484;-36
2023/05/08 04:41:25;;;;;;;17.75;15.38;;;10.30;99.90;;;;;;5138507;27;20049;-37
2023/05/08 04:43:50;;;;;;;17.17;14.45;;;10.30;99.90;;;;;;5156665;27;20038;-35
2023/05/08 04:46:16;;;;;;;17.20;15.07;;;10.20;99.90;;;;;;5148208;27;20485;-36
2023/05/08 04:48:42;;;;;;;18.80;15.80;;;10.30;99.90;;;;;;5138381;27;20039;-35
2023/05/08 04:51:07;;;;;;;17.42;14.70;;;10.40;99.90;;;;;;5143995;27;20482;-36
2023/05/08 04:53:33;;;;;;;16.55;14.68;;;10.30;99.90;;;;;;5144413;27;20035;-35
2023/05/08 04:55:59;;;;;;;19.33;15.13;;;10.20;99.90;;;;;;5140800;27;20113;-35
2023/05/08 04:58:25;;;;;;;16.50;14.68;;;10.10;99.90;;;;;;5121494;27;20043;-35
2023/05/08 05:00:51;;;;;;;17.65;14.60;;;10.30;99.90;;;;;;5144299;27;20042;-34
2023/05/08 05:03:16;;;;;;;17.95;15.65;;;10.20;99.90;;;;;;5159019;27;20030;-34
2023/05/08 05:05:42;;;;;;;17.40;15.00;;;10.20;99.90;;;;;;5148810;27;20038;-36
2023/05/08 05:08:08;;;;;;;18.55;16.05;;;10.30;99.90;;;;;;5120741;27;20054;-37
2023/05/08 05:10:33;;;;;;;16.95;15.13;;;10.30;99.90;;;;;;5138178;27;20118;-37
2023/05/08 05:12:59;;;;;;;17.58;15.70;;;10.10;99.90;;;;;;5137926;27;20120;-35
2023/05/08 05:15:25;;;;;;;19.00;15.85;;;10.20;99.90;;;;;;5137730;27;20488;-36
2023/05/08 05:17:51;;;;;;;18.55;16.42;;;10.30;99.90;;;;;;5137487;27;20053;-36
2023/05/08 05:20:16;;;;;;;17.17;14.65;;;10.30;99.90;;;;;;5141640;27;20034;-38
2023/05/08 05:22:42;;;;;;;16.73;14.93;;;10.40;99.90;;;;;;5158146;27;20038;-35
2023/05/08 05:25:08;;;;;;;16.98;15.07;;;10.30;99.90;;;;;;5140051;27;20043;-36
2023/05/08 05:27:38;;;;;;;17.48;15.57;;;10.30;99.90;;;;;;5152396;27;20034;-37
2023/05/08 05:30:04;;;;;;;16.65;14.65;;;10.40;99.90;;;;;;5137718;27;20066;-37
2023/05/08 05:32:30;;;;;;;17.30;15.25;;;10.40;99.90;;;;;;5151104;27;20488;-36
2023/05/08 05:34:55;;;;;;;17.08;15.15;;;10.50;99.90;;;;;;5150364;27;20057;-34
2023/05/08 05:37:23;;;;;;;17.35;14.95;;;10.60;99.90;;;;;;5151675;27;20066;-33
2023/05/08 05:39:48;;;;;;;17.50;15.00;;;10.70;99.90;;;;;;5136451;27;20043;-35
2023/05/08 05:42:14;;;;;;;16.65;14.95;;;10.60;99.90;;;;;;5136001;27;20139;-36
2023/05/08 05:44:40;;;;;;;17.73;15.60;;;10.70;99.90;;;;;;5140507;27;20045;-34
2023/05/08 05:47:08;;;;;;;17.67;14.82;;;10.80;99.90;;;;;;5149419;27;20034;-36
2023/05/08 05:49:34;;;;;;;18.67;15.32;;;11.00;99.90;;;;;;5152417;27;20033;-36
2023/05/08 05:52:00;;;;;;;18.80;14.85;;;11.10;99.90;;;;;;5137507;27;20030;-36
2023/05/08 05:54:26;;;;;;;16.05;13.68;;;11.20;99.90;;;;;;5176348;27;20117;-36
2023/05/08 05:56:52;;;;;;;17.50;15.70;;;11.20;99.90;;;;;;5156414;27;20034;-35
2023/05/08 05:59:17;;;;;;;17.30;15.45;;;11.30;99.90;;;;;;5137189;27;20212;-36
2023/05/08 06:01:43;;;;;;;16.58;14.88;;;11.20;99.90;;;;;;5151156;27;20452;-37
2023/05/08 06:04:09;;;;;;;15.43;13.93;;;11.50;99.90;;;;;;5148517;27;20042;-34
2023/05/08 06:06:34;;;;;;;17.15;14.50;;;11.50;99.90;;;;;;5154490;27;20042;-37
2023/05/08 06:09:00;;;;;;;16.75;14.27;;;11.60;99.90;;;;;;5118820;27;20419;-35
2023/05/08 06:11:26;;;;;;;14.95;13.35;;;11.50;99.90;;;;;;5142248;27;20030;-37
2023/05/08 06:13:51;;;;;;;15.35;13.55;;;11.60;99.90;;;;;;5136598;27;20391;-37
2023/05/08 06:16:19;;;;;;;14.20;12.55;;;11.60;99.90;;;;;;5149903;27;20074;-35
2023/05/08 06:18:45;;;;;;;14.50;13.00;;;11.80;99.90;;;;;;5157450;27;20030;-36
2023/05/08 06:21:10;;;;;;;15.02;13.48;;;11.80;99.90;;;;;;5157386;27;20517;-35
2023/05/08 06:23:36;;;;;;;14.38;12.93;;;11.90;99.90;;;;;;5152310;27;20030;-36
2023/05/08 06:26:02;;;;;;;15.15;13.65;;;12.00;99.90;;;;;;5136848;27;20038;-37
2023/05/08 06:28:28;;;;;;;14.93;13.38;;;12.20;99.90;;;;;;5149884;27;20491;-39
2023/05/08 06:30:56;;;;;;;14.57;13.07;;;12.10;99.90;;;;;;5162993;27;20063;-36
2023/05/08 06:33:22;;;;;;;15.60;13.73;;;12.20;99.90;;;;;;5154930;27;20045;-35
2023/05/08 06:35:48;;;;;;;14.02;12.52;;;12.20;99.90;;;;;;5136946;27;20039;-39
2023/05/08 06:38:14;;;;;;;14.00;12.55;;;12.30;99.90;;;;;;5144923;27;20491;-38
2023/05/08 06:40:44;;;;;;;14.52;13.13;;;12.50;99.90;;;;;;5140997;27;20122;-35
2023/05/08 06:43:11;;;;;;;15.80;14.27;;;12.40;99.90;;;;;;5136321;27;20492;-37
2023/05/08 06:45:37;;;;;;;15.57;13.73;;;12.50;99.90;;;;;;5137880;27;20055;-36
2023/05/08 06:48:02;;;;;;;14.80;13.40;;;12.60;99.90;;;;;;5150090;27;20121;-35
2023/05/08 06:50:28;;;;;;;15.27;13.77;;;12.80;99.90;;;;;;5150310;27;20038;-34
2023/05/08 06:52:54;;;;;;;14.65;13.15;;;13.00;99.90;;;;;;5140155;27;20033;-36
2023/05/08 06:55:20;;;;;;;15.40;13.90;;;12.80;99.90;;;;;;5144174;27;20038;-36
2023/05/08 06:57:45;;;;;;;16.08;14.15;;;13.10;99.90;;;;;;5135905;27;20099;-36
2023/05/08 07:00:11;;;;;;;14.05;12.70;;;13.00;99.90;;;;;;5151092;27;20463;-39
2023/05/08 07:02:37;;;;;;;15.27;13.88;;;13.30;99.90;;;;;;5156522;27;20506;-36
2023/05/08 07:05:03;;;;;;;15.32;13.82;;;13.20;99.90;;;;;;5137043;27;20042;-36
2023/05/08 07:07:29;;;;;;;15.55;13.95;;;13.50;99.90;;;;;;5154886;27;20042;-38
2023/05/08 07:09:55;;;;;;;16.27;14.57;;;13.50;99.90;;;;;;5139197;27;20035;-37
2023/05/08 07:12:23;;;;;;;14.95;13.45;;;13.60;99.90;;;;;;5138389;27;20164;-36
2023/05/08 07:14:49;;;;;;;14.85;13.35;;;13.80;99.90;;;;;;5145187;27;20121;-38
2023/05/08 07:17:15;;;;;;;15.13;13.60;;;14.00;99.90;;;;;;5156136;27;20121;-36
2023/05/08 07:19:40;;;;;;;14.85;13.25;;;14.40;99.90;;;;;;5154038;27;20038;-37
2023/05/08 07:22:06;;;;;;;15.80;14.20;;;14.80;99.90;;;;;;5143837;27;20034;-36
2023/05/08 07:24:32;;;;;;;14.52;12.95;;;15.20;99.90;;;;;;5155250;27;20129;-35
2023/05/08 07:26:58;;;;;;;14.13;12.73;;;15.40;99.90;;;;;;5153482;27;20049;-36
2023/05/08 07:29:25;;;;;;;13.77;12.48;;;15.50;99.90;;;;;;5141477;27;20066;-36
2023/05/08 07:31:51;;;;;;;13.63;12.23;;;15.30;99.90;;;;;;5135393;27;20031;-35
2023/05/08 07:34:17;;;;;;;14.20;12.77;;;15.50;99.90;;;;;;5135310;27;20106;-35
2023/05/08 07:36:43;;;;;;;13.77;12.48;;;15.80;99.90;;;;;;5135262;27;20369;-36
2023/05/08 07:39:09;;;;;;;14.63;13.23;;;15.60;99.90;;;;;;5150916;27;20031;-35
2023/05/08 07:41:37;;;;;;;14.93;13.52;;;15.70;99.90;;;;;;5146089;27;20412;-37
2023/05/08 07:44:03;;;;;;;14.15;12.75;;;15.80;99.90;;;;;;5138338;27;20030;-36
2023/05/08 07:46:29;;;;;;;12.88;11.57;;;15.80;99.90;;;;;;5135623;27;20095;-36
2023/05/08 07:48:55;;;;;;;14.10;12.80;;;15.80;99.90;;;;;;5148272;27;20436;-36
2023/05/08 07:51:20;;;;;;;14.80;13.30;;;15.60;99.90;;;;;;5142024;27;20027;-36
2023/05/08 07:53:47;;;;;;;14.25;12.95;;;16.00;99.90;;;;;;5166431;27;20074;-35
2023/05/08 07:56:13;;;;;;;14.05;12.73;;;16.00;99.90;;;;;;5141802;27;20046;-34
2023/05/08 07:58:39;;;;;;;14.50;13.15;;;16.10;99.90;;;;;;5142037;27;20042;-35
2023/05/08 08:01:05;;;;;;;14.27;12.88;;;16.20;99.90;;;;;;5142676;27;20071;-37
2023/05/08 08:03:30;;;;;;;13.98;12.68;;;16.30;99.90;;;;;;5147689;27;20116;-38
2023/05/08 08:05:56;;;;;;;13.80;12.40;;;16.40;99.90;;;;;;5162850;27;20034;-36
2023/05/08 08:08:22;;;;;;;15.20;13.68;;;16.90;99.90;;;;;;5155222;27;20492;-37
2023/05/08 08:10:48;;;;;;;14.52;13.13;;;16.80;99.90;;;;;;5142013;27;20034;-35
2023/05/08 08:13:14;;;;;;;15.25;13.75;;;17.20;99.90;;;;;;5159864;27;20172;-35
2023/05/08 08:15:40;;;;;;;15.05;13.45;;;16.90;99.90;;;;;;5141965;27;20137;-36
2023/05/08 08:18:06;;;;;;;14.50;13.10;;;17.40;99.90;;;;;;5155702;27;20038;-37
2023/05/08 08:20:32;;;;;;;15.07;13.60;;;17.70;99.90;;;;;;5141747;27;20042;-36
2023/05/08 08:22:58;;;;;;;13.93;12.70;;;17.60;99.90;;;;;;5141780;27;20049;-36
2023/05/08 08:25:24;;;;;;;15.00;13.60;;;17.70;99.90;;;;;;5143434;27;20038;-36
2023/05/08 08:27:50;;;;;;;14.65;13.18;;;17.90;99.90;;;;;;5141759;27;20487;-35
2023/05/08 08:30:16;;;;;;;15.25;13.75;;;17.80;99.90;;;;;;5124484;27;20038;-35
2023/05/08 08:32:41;;;;;;;15.70;14.10;;;18.00;99.90;;;;;;5149454;27;20038;-36
2023/05/08 08:35:08;;;;;;;14.50;13.07;;;18.10;99.90;;;;;;5146845;27;20110;-36
2023/05/08 08:37:33;;;;;;;15.32;13.55;;;18.20;99.90;;;;;;5160807;27;20513;-38
2023/05/08 08:40:00;;;;;;;14.70;13.23;;;18.60;99.90;;;;;;5162426;27;20042;-37
2023/05/08 08:42:25;;;;;;;14.48;13.18;;;18.50;99.90;;;;;;5159206;27;20407;-36
2023/05/08 08:44:51;;;;;;;14.05;12.65;;;18.90;99.90;;;;;;5147646;27;20087;-37
2023/05/08 08:47:19;;;;;;;14.88;13.48;;;19.40;99.90;;;;;;5160007;27;20082;-36
2023/05/08 08:49:48;;;;;;;15.30;13.82;;;19.90;99.90;;;;;;5141665;27;20034;-36
2023/05/08 08:52:30;;;;;;;14.27;12.88;;;20.30;99.90;;;;;;5141441;27;20037;-39
2023/05/08 08:55:01;;;;;;;13.95;12.65;;;20.30;99.90;;;;;;5151906;27;20038;-38
2023/05/08 08:57:31;;;;;;;15.25;13.95;;;20.60;99.90;;;;;;5148148;27;20042;-37
2023/05/08 08:59:58;;;;;;;14.27;12.88;;;21.00;99.90;;;;;;5152959;27;20488;-36
2023/05/08 09:02:25;;;;;;;14.52;13.32;;;21.10;99.90;;;;;;5152130;27;20030;-38
2023/05/08 09:04:51;;;;;;;13.65;12.55;;;21.00;99.90;;;;;;5148086;27;20045;-36
2023/05/08 09:07:17;;;;;;;14.25;12.82;;;21.00;99.90;;;;;;5140490;27;20031;-36
2023/05/08 09:09:44;;;;;;;13.65;12.50;;;21.40;99.90;;;;;;5146680;27;20031;-36
2023/05/08 09:12:12;;;;;;;14.27;12.90;;;21.20;99.90;;;;;;5137736;27;20042;-37
2023/05/08 09:14:38;;;;;;;14.45;13.18;;;21.20;99.90;;;;;;5137586;27;20083;-40
2023/05/08 09:17:04;;;;;;;14.70;13.40;;;21.50;99.90;;;;;;5142722;27;20106;-38
2023/05/08 09:19:30;;;;;;;14.82;13.52;;;21.10;99.90;;;;;;5158042;27;20038;-37
2023/05/08 09:21:59;;;;;;;14.30;13.07;;;21.30;99.90;;;;;;5159184;27;20042;-35
2023/05/08 09:24:26;;;;;;;14.77;13.35;;;21.50;99.90;;;;;;5148302;27;20069;-36
2023/05/08 09:26:52;;;;;;;13.90;12.63;;;21.60;99.90;;;;;;5137319;27;20423;-37
2023/05/08 09:29:22;;;;;;;13.50;12.30;;;22.00;99.90;;;;;;5146135;27;20030;-37
2023/05/08 09:31:50;;;;;;;13.77;12.57;;;22.20;99.90;;;;;;5157859;27;20034;-37
2023/05/08 09:34:29;;;;;;;13.43;12.30;;;22.40;99.90;;;;;;5158261;27;20437;-37
2023/05/08 09:37:16;;;;;;;15.70;14.30;;;22.90;99.90;;;;;;5144116;27;20395;-36
2023/05/08 09:39:44;;;;;;;13.18;12.02;;;23.00;99.90;;;;;;5140125;27;20122;-36
2023/05/08 09:42:10;;;;;;;14.95;13.40;;;23.40;99.90;;;;;;5157690;27;20045;-36
2023/05/08 09:44:52;;;;;;;14.65;13.45;;;23.40;99.90;;;;;;5154323;27;20477;-36
2023/05/08 09:47:19;;;;;;;13.77;12.55;;;23.40;99.90;;;;;;5148709;27;20034;-37
2023/05/08 09:50:01;;;;;;;13.68;12.52;;;23.60;99.90;;;;;;5149338;27;20034;-38
2023/05/08 09:52:28;;;;;;;14.50;13.25;;;23.80;99.90;;;;;;5174260;27;20102;-38
2023/05/08 09:54:58;;;;;;;15.00;13.80;;;23.20;99.90;;;;;;5157553;27;20081;-37
2023/05/08 09:57:25;;;;;;;12.98;11.80;;;23.70;99.90;;;;;;5146924;27;20091;-37
2023/05/08 10:00:19;;;;;;;14.07;12.82;;;23.50;99.90;;;;;;5137544;27;20042;-40
2023/05/08 10:03:01;;;;;;;13.60;12.50;;;23.50;99.90;;;;;;5137591;27;20495;-36
2023/05/08 10:05:33;;;;;;;15.40;14.10;;;23.20;99.90;;;;;;5144915;27;20471;-37
2023/05/08 10:08:21;;;;;;;14.05;12.90;;;22.80;99.90;;;;;;5137672;27;20050;-37
2023/05/08 10:10:47;;;;;;;13.63;12.52;;;22.90;99.90;;;;;;5145048;27;20042;-36
2023/05/08 10:13:15;;;;;;;14.60;13.30;;;23.30;99.90;;;;;;5141494;27;20030;-38
2023/05/08 10:15:42;;;;;;;14.10;12.63;;;23.50;99.90;;;;;;5150299;27;20038;-40
2023/05/08 10:18:09;;;;;;;14.65;13.40;;;23.30;99.90;;;;;;5136696;27;20117;-36
2023/05/08 10:20:39;;;;;;;14.38;13.18;;;23.70;99.90;;;;;;5136692;27;20480;-37
2023/05/08 10:23:13;;;;;;;14.45;13.25;;;23.80;99.90;;;;;;5137123;27;20466;-37
2023/05/08 10:25:45;;;;;;;14.88;13.50;;;24.30;97.70;;;;;;5142079;27;20038;-40
2023/05/08 10:28:37;;;;;;;15.40;14.20;;;24.40;99.90;;;;;;5137210;27;20061;-38
2023/05/08 10:31:04;;;;;;;14.82;13.63;;;24.30;90.50;;;;;;5142557;27;20160;-37
2023/05/08 10:33:30;;;;;;;15.45;14.25;;;24.80;97.20;;;;;;5148398;27;20126;-38
2023/05/08 10:35:57;;;;;;;15.20;13.90;;;24.50;96.80;;;;;;5151453;27;20070;-39
2023/05/08 10:38:24;;;;;;;15.80;14.45;;;24.70;99.90;;;;;;5143320;27;20030;-40
2023/05/08 10:40:56;;;;;;;15.25;13.93;;;25.10;96.00;;;;;;5150848;27;20091;-37
2023/05/08 10:43:23;;;;;;;14.43;13.32;;;25.20;91.60;;;;;;5155731;27;20069;-37
2023/05/08 10:45:51;;;;;;;15.10;13.70;;;25.40;95.00;;;;;;5147034;27;20042;-39
2023/05/08 10:48:23;;;;;;;15.93;14.48;;;25.40;92.80;;;;;;5154031;27;20066;-36
2023/05/08 10:51:01;;;;;;;14.18;13.07;;;25.90;90.40;;;;;;5137194;27;20433;-36
2023/05/08 10:53:30;;;;;;;14.70;13.50;;;25.40;89.10;;;;;;5151625;27;20074;-37
2023/05/08 10:55:56;;;;;;;16.58;15.18;;;26.00;91.70;;;;;;5143617;27;20121;-38
2023/05/08 10:58:39;;;;;;;15.35;14.20;;;26.40;89.90;;;;;;5150054;27;20166;-36
2023/05/08 11:01:09;;;;;;;16.27;14.77;;;26.50;83.50;;;;;;5150785;27;20417;-37
2023/05/08 11:03:56;;;;;;;17.15;15.73;;;26.40;82.70;;;;;;5143880;27;20038;-37
2023/05/08 11:06:42;;;;;;;17.55;15.90;;;26.10;79.70;;;;;;5159172;27;20046;-36
2023/05/08 11:09:08;;;;;;;17.25;15.75;;;26.50;79.80;;;;;;5150232;27;20113;-39
2023/05/08 11:11:38;;;;;;;16.38;14.98;;;26.00;81.90;;;;;;5154786;27;20543;-38
2023/05/08 11:14:07;;;;;;;16.50;14.88;;;26.30;82.60;;;;;;5141473;27;20389;-35
2023/05/08 11:16:52;;;;;;;15.75;14.35;;;26.10;84.30;;;;;;5152066;27;20034;-38
2023/05/08 11:19:19;;;;;;;17.10;15.75;;;26.50;82.50;;;;;;5165595;27;20492;-39
2023/05/08 11:22:11;;;;;;;16.55;15.25;;;26.60;81.50;;;;;;5138007;27;20034;-39
2023/05/08 11:24:51;;;;;;;16.33;14.95;;;26.60;79.30;;;;;;5136981;27;20027;-37
2023/05/08 11:27:17;;;;;;;17.55;15.65;;;26.40;78.50;;;;;;5159400;27;20041;-38
2023/05/08 11:29:46;;;;;;;17.98;16.50;;;26.80;79.30;;;;;;5168376;27;20038;-39
2023/05/08 11:32:11;;;;;;;16.20;14.82;;;27.10;80.30;;;;;;5153998;27;20030;-38
2023/05/08 11:34:44;;;;;;;16.25;14.63;;;27.20;81.90;;;;;;5143826;27;20034;-38
2023/05/08 11:37:18;;;;;;;16.90;15.45;;;27.20;78.50;;;;;;5147768;27;20030;-38
2023/05/08 11:39:43;;;;;;;17.17;15.70;;;27.10;78.80;;;;;;5154378;27;20041;-38
2023/05/08 11:42:27;;;;;;;15.82;14.52;;;27.30;79.10;;;;;;5151116;27;20128;-36
2023/05/08 11:45:12;;;;;;;15.70;14.18;;;27.40;77.00;;;;;;5154205;27;20035;-36
2023/05/08 11:47:40;;;;;;;14.73;13.60;;;27.70;75.60;;;;;;5155052;27;20452;-38
2023/05/08 11:50:07;;;;;;;16.08;14.65;;;27.80;76.80;;;;;;5149157;27;20039;-38
2023/05/08 11:52:39;;;;;;;16.17;14.77;;;28.20;75.90;;;;;;5142756;27;20026;-36
2023/05/08 11:55:10;;;;;;;17.40;14.60;;;28.10;75.30;;;;;;5143408;27;20031;-39
2023/05/08 11:57:36;;;;;;;15.50;14.23;;;28.70;75.80;;;;;;5149721;27;20039;-39
2023/05/08 12:00:10;;;;;;;16.75;15.25;;;28.70;75.40;;;;;;5149166;27;20041;-37
2023/05/08 12:02:40;;;;;;;16.15;14.85;;;28.40;74.50;;;;;;5138195;27;20067;-37
2023/05/08 12:05:07;;;;;;;16.90;15.30;;;28.90;75.00;;;;;;5153930;27;20050;-37
2023/05/08 12:07:51;;;;;;;16.40;14.95;;;29.00;74.20;;;;;;5157109;27;20034;-37
2023/05/08 12:10:17;;;;;;;14.57;13.40;;;28.70;73.70;;;;;;5140039;27;20429;-38
2023/05/08 12:12:43;;;;;;;15.82;14.52;;;28.90;74.40;;;;;;5155681;27;20068;-37
2023/05/08 12:15:11;;;;;;;15.20;14.00;;;28.50;73.70;;;;;;5150856;27;20101;-37
2023/05/08 12:17:37;;;;;;;14.65;13.32;;;28.30;74.40;;;;;;5139186;27;20049;-40
2023/05/08 12:20:15;;;;;;;15.02;13.75;;;28.70;74.20;;;;;;5134895;27;20039;-38
2023/05/08 12:22:48;;;;;;;15.80;14.40;;;28.70;73.80;;;;;;5143181;27;20039;-37
2023/05/08 12:25:15;;;;;;;14.88;13.40;;;28.70;73.70;;;;;;5141760;27;20042;-37
2023/05/08 12:27:42;;;;;;;15.75;14.25;;;28.60;73.90;;;;;;5143225;27;20038;-40
2023/05/08 12:30:10;;;;;;;15.68;14.38;;;28.70;73.30;;;;;;5166181;27;20438;-36
2023/05/08 12:32:39;;;;;;;14.73;13.32;;;29.10;73.60;;;;;;5137428;27;20035;-37
2023/05/08 12:35:07;;;;;;;16.08;14.80;;;28.80;73.20;;;;;;5150090;27;20038;-39
2023/05/08 12:37:32;;;;;;;15.77;14.43;;;29.30;73.70;;;;;;5139102;27;20118;-38
2023/05/08 12:39:58;;;;;;;14.93;13.73;;;29.20;73.40;;;;;;5142313;27;20571;-40